sensor_id;sensor_type;location;lat;lon;timestamp;temperature;humidity
14401;DHT22;7285;50.894;5.462;2024-03-08T00:01:00;4.50;99.90
14401;DHT22;7285;50.894;5.462;2024-03-08T00:03:27;4.50;99.90
14401;DHT22;7285;50.894;5.462;2024-03-08T00:05:54;4.50;99.90
14401;DHT22;7285;50.894;5.462;2024-03-08T00:08:22;4.50;99.90
14401;DHT22;7285;50.894;5.462;2024-03-08T00:10:50;4.40;99.90
14401;DHT22;7285;50.894;5.462;2024-03-08T00:13:19;4.40;99.90
14401;DHT22;7285;50.894;5.462;2024-03-08T00:15:47;4.30;99.90
14401;DHT22;7285;50.894;5.462;2024-03-08T00:18:14;4.30;99.90
14401;DHT22;7285;50.894;5.462;2024-03-08T00:20:41;4.30;99.90
14401;DHT22;7285;50.894;5.462;2024-03-08T00:23:09;4.30;99.90
14401;DHT22;7285;50.894;5.462;2024-03-08T00:25:36;4.30;99.90
14401;DHT22;7285;50.894;5.462;2024-03-08T00:28:05;4.30;99.90
14401;DHT22;7285;50.894;5.462;2024-03-08T00:30:33;4.30;99.90
14401;DHT22;7285;50.894;5.462;2024-03-08T00:33:00;4.20;99.90
14401;DHT22;7285;50.894;5.462;2024-03-08T00:35:27;4.30;99.90
14401;DHT22;7285;50.894;5.462;2024-03-08T00:37:54;4.20;99.90
14401;DHT22;7285;50.894;5.462;2024-03-08T00:40:22;4.20;99.90
14401;DHT22;7285;50.894;5.462;2024-03-08T00:42:49;4.10;99.90
14401;DHT22;7285;50.894;5.462;2024-03-08T00:45:16;4.10;99.90
14401;DHT22;7285;50.894;5.462;2024-03-08T00:47:44;4.00;99.90
14401;DHT22;7285;50.894;5.462;2024-03-08T00:50:12;4.00;99.90
14401;DHT22;7285;50.894;5.462;2024-03-08T00:52:39;4.00;99.90
14401;DHT22;7285;50.894;5.462;2024-03-08T00:55:07;3.90;99.90
14401;DHT22;7285;50.894;5.462;2024-03-08T00:57:36;3.90;99.90
14401;DHT22;7285;50.894;5.462;2024-03-08T01:00:05;3.90;99.90
14401;DHT22;7285;50.894;5.462;2024-03-08T01:02:37;3.90;99.90
14401;DHT22;7285;50.894;5.462;2024-03-08T01:05:06;3.90;99.90
14401;DHT22;7285;50.894;5.462;2024-03-08T01:07:34;3.80;99.90
14401;DHT22;7285;50.894;5.462;2024-03-08T01:10:01;3.80;99.90
14401;DHT22;7285;50.894;5.462;2024-03-08T01:12:28;3.80;99.90
14401;DHT22;7285;50.894;5.462;2024-03-08T01:14:56;3.70;99.90
14401;DHT22;7285;50.894;5.462;2024-03-08T01:17:24;3.70;99.90
14401;DHT22;7285;50.894;5.462;2024-03-08T01:19:51;3.80;99.90
14401;DHT22;7285;50.894;5.462;2024-03-08T01:22:20;3.70;99.90
14401;DHT22;7285;50.894;5.462;2024-03-08T01:24:48;3.70;99.90
14401;DHT22;7285;50.894;5.462;2024-03-08T01:27:15;3.70;99.90
14401;DHT22;7285;50.894;5.462;2024-03-08T01:29:42;3.60;99.90
14401;DHT22;7285;50.894;5.462;2024-03-08T01:32:09;3.60;99.90
14401;DHT22;7285;50.894;5.462;2024-03-08T01:34:36;3.60;99.90
14401;DHT22;7285;50.894;5.462;2024-03-08T01:37:03;3.50;99.90
14401;DHT22;7285;50.894;5.462;2024-03-08T01:39:31;3.50;99.90
14401;DHT22;7285;50.894;5.462;2024-03-08T01:41:58;3.40;99.90
14401;DHT22;7285;50.894;5.462;2024-03-08T01:44:26;3.50;99.90
14401;DHT22;7285;50.894;5.462;2024-03-08T01:46:53;3.40;99.90
14401;DHT22;7285;50.894;5.462;2024-03-08T01:49:22;3.40;99.90
14401;DHT22;7285;50.894;5.462;2024-03-08T01:51:49;3.40;99.90
14401;DHT22;7285;50.894;5.462;2024-03-08T01:54:18;3.30;99.90
14401;DHT22;7285;50.894;5.462;2024-03-08T01:56:47;3.30;99.90
14401;DHT22;7285;50.894;5.462;2024-03-08T01:59:15;3.30;99.90
14401;DHT22;7285;50.894;5.462;2024-03-08T02:01:42;3.30;99.90
14401;DHT22;7285;50.894;5.462;2024-03-08T02:04:10;3.30;99.90
14401;DHT22;7285;50.894;5.462;2024-03-08T02:06:37;3.20;99.90
14401;DHT22;7285;50.894;5.462;2024-03-08T02:09:04;3.20;99.90
14401;DHT22;7285;50.894;5.462;2024-03-08T02:11:33;3.20;99.90
14401;DHT22;7285;50.894;5.462;2024-03-08T02:14:03;3.10;99.90
14401;DHT22;7285;50.894;5.462;2024-03-08T02:16:31;3.10;99.90
14401;DHT22;7285;50.894;5.462;2024-03-08T02:18:59;3.10;99.90
14401;DHT22;7285;50.894;5.462;2024-03-08T02:21:27;3.10;99.90
14401;DHT22;7285;50.894;5.462;2024-03-08T02:23:55;3.10;99.90
14401;DHT22;7285;50.894;5.462;2024-03-08T02:26:22;3.00;99.90
14401;DHT22;7285;50.894;5.462;2024-03-08T02:28:50;3.00;99.90
14401;DHT22;7285;50.894;5.462;2024-03-08T02:31:17;3.00;99.90
14401;DHT22;7285;50.894;5.462;2024-03-08T02:33:44;3.00;99.90
14401;DHT22;7285;50.894;5.462;2024-03-08T02:36:13;2.90;99.90
14401;DHT22;7285;50.894;5.462;2024-03-08T02:38:41;2.90;99.90
14401;DHT22;7285;50.894;5.462;2024-03-08T02:41:08;2.90;99.90
14401;DHT22;7285;50.894;5.462;2024-03-08T02:43:35;2.90;99.90
14401;DHT22;7285;50.894;5.462;2024-03-08T02:46:03;2.80;99.90
14401;DHT22;7285;50.894;5.462;2024-03-08T02:48:31;2.80;99.90
14401;DHT22;7285;50.894;5.462;2024-03-08T02:50:58;2.80;99.90
14401;DHT22;7285;50.894;5.462;2024-03-08T02:53:27;2.80;99.90
14401;DHT22;7285;50.894;5.462;2024-03-08T02:55:55;2.70;99.90
14401;DHT22;7285;50.894;5.462;2024-03-08T02:58:23;2.70;99.90
14401;DHT22;7285;50.894;5.462;2024-03-08T03:00:50;2.70;99.90
14401;DHT22;7285;50.894;5.462;2024-03-08T03:03:17;2.80;99.90
14401;DHT22;7285;50.894;5.462;2024-03-08T03:05:44;2.70;99.90
14401;DHT22;7285;50.894;5.462;2024-03-08T03:08:11;2.70;99.90
14401;DHT22;7285;50.894;5.462;2024-03-08T03:10:38;2.70;99.90
14401;DHT22;7285;50.894;5.462;2024-03-08T03:13:07;2.70;99.90
14401;DHT22;7285;50.894;5.462;2024-03-08T03:15:34;2.70;99.90
14401;DHT22;7285;50.894;5.462;2024-03-08T03:18:02;2.70;99.90
14401;DHT22;7285;50.894;5.462;2024-03-08T03:20:29;2.60;99.90
14401;DHT22;7285;50.894;5.462;2024-03-08T03:22:59;2.60;99.90
14401;DHT22;7285;50.894;5.462;2024-03-08T03:25:28;2.60;99.90
14401;DHT22;7285;50.894;5.462;2024-03-08T03:27:59;2.60;99.90
14401;DHT22;7285;50.894;5.462;2024-03-08T03:30:28;2.60;99.90
14401;DHT22;7285;50.894;5.462;2024-03-08T03:32:58;2.60;99.90
14401;DHT22;7285;50.894;5.462;2024-03-08T03:35:26;2.60;99.90
14401;DHT22;7285;50.894;5.462;2024-03-08T03:37:53;2.60;99.90
14401;DHT22;7285;50.894;5.462;2024-03-08T03:40:31;2.60;99.90
14401;DHT22;7285;50.894;5.462;2024-03-08T03:42:58;2.50;99.90
14401;DHT22;7285;50.894;5.462;2024-03-08T03:45:25;2.50;99.90
14401;DHT22;7285;50.894;5.462;2024-03-08T03:47:54;2.50;99.90
14401;DHT22;7285;50.894;5.462;2024-03-08T03:50:21;2.50;99.90
14401;DHT22;7285;50.894;5.462;2024-03-08T03:52:49;2.50;99.90
14401;DHT22;7285;50.894;5.462;2024-03-08T03:55:16;2.50;99.90
14401;DHT22;7285;50.894;5.462;2024-03-08T03:57:43;2.50;99.90
14401;DHT22;7285;50.894;5.462;2024-03-08T04:00:12;2.40;99.90
14401;DHT22;7285;50.894;5.462;2024-03-08T04:02:40;2.50;99.90
14401;DHT22;7285;50.894;5.462;2024-03-08T04:05:09;2.50;99.90
14401;DHT22;7285;50.894;5.462;2024-03-08T04:07:37;2.50;99.90
14401;DHT22;7285;50.894;5.462;2024-03-08T04:10:06;2.40;99.90
14401;DHT22;7285;50.894;5.462;2024-03-08T04:12:33;2.40;99.90
14401;DHT22;7285;50.894;5.462;2024-03-08T04:15:01;2.40;99.90
14401;DHT22;7285;50.894;5.462;2024-03-08T04:17:28;2.40;99.90
14401;DHT22;7285;50.894;5.462;2024-03-08T04:19:55;2.40;99.90
14401;DHT22;7285;50.894;5.462;2024-03-08T04:22:24;2.30;99.90
14401;DHT22;7285;50.894;5.462;2024-03-08T04:24:51;2.30;99.90
14401;DHT22;7285;50.894;5.462;2024-03-08T04:27:18;2.30;99.90
14401;DHT22;7285;50.894;5.462;2024-03-08T04:29:45;2.30;99.90
14401;DHT22;7285;50.894;5.462;2024-03-08T04:32:12;2.30;99.90
14401;DHT22;7285;50.894;5.462;2024-03-08T04:34:39;2.30;99.90
14401;DHT22;7285;50.894;5.462;2024-03-08T04:37:06;2.30;99.90
14401;DHT22;7285;50.894;5.462;2024-03-08T04:39:37;2.30;99.90
14401;DHT22;7285;50.894;5.462;2024-03-08T04:42:05;2.30;99.90
14401;DHT22;7285;50.894;5.462;2024-03-08T04:44:35;2.30;99.90
14401;DHT22;7285;50.894;5.462;2024-03-08T04:47:03;2.30;99.90
14401;DHT22;7285;50.894;5.462;2024-03-08T04:49:31;2.40;99.90
14401;DHT22;7285;50.894;5.462;2024-03-08T04:52:01;2.30;99.90
14401;DHT22;7285;50.894;5.462;2024-03-08T04:54:28;2.30;99.90
14401;DHT22;7285;50.894;5.462;2024-03-08T04:56:57;2.30;99.90
14401;DHT22;7285;50.894;5.462;2024-03-08T04:59:25;2.30;99.90
14401;DHT22;7285;50.894;5.462;2024-03-08T05:01:52;2.30;99.90
14401;DHT22;7285;50.894;5.462;2024-03-08T05:04:19;2.20;99.90
14401;DHT22;7285;50.894;5.462;2024-03-08T05:06:47;2.20;99.90
14401;DHT22;7285;50.894;5.462;2024-03-08T05:09:14;2.20;99.90
14401;DHT22;7285;50.894;5.462;2024-03-08T05:11:42;2.20;99.90
14401;DHT22;7285;50.894;5.462;2024-03-08T05:14:11;2.20;99.90
14401;DHT22;7285;50.894;5.462;2024-03-08T05:16:40;2.30;99.90
14401;DHT22;7285;50.894;5.462;2024-03-08T05:19:07;2.30;99.90
14401;DHT22;7285;50.894;5.462;2024-03-08T05:21:34;2.30;99.90
14401;DHT22;7285;50.894;5.462;2024-03-08T05:24:01;2.30;99.90
14401;DHT22;7285;50.894;5.462;2024-03-08T05:26:28;2.20;99.90
14401;DHT22;7285;50.894;5.462;2024-03-08T05:28:56;2.20;99.90
14401;DHT22;7285;50.894;5.462;2024-03-08T05:31:25;2.20;99.90
14401;DHT22;7285;50.894;5.462;2024-03-08T05:33:53;2.20;99.90
14401;DHT22;7285;50.894;5.462;2024-03-08T05:36:21;2.20;99.90
14401;DHT22;7285;50.894;5.462;2024-03-08T05:38:48;2.20;99.90
14401;DHT22;7285;50.894;5.462;2024-03-08T05:41:16;2.20;99.90
14401;DHT22;7285;50.894;5.462;2024-03-08T05:43:44;2.20;99.90
14401;DHT22;7285;50.894;5.462;2024-03-08T05:46:14;2.20;99.90
14401;DHT22;7285;50.894;5.462;2024-03-08T05:48:43;2.20;99.90
14401;DHT22;7285;50.894;5.462;2024-03-08T05:51:10;2.20;99.90
14401;DHT22;7285;50.894;5.462;2024-03-08T05:53:37;2.20;99.90
14401;DHT22;7285;50.894;5.462;2024-03-08T05:56:05;2.20;99.90
14401;DHT22;7285;50.894;5.462;2024-03-08T05:58:32;2.20;99.90
14401;DHT22;7285;50.894;5.462;2024-03-08T06:00:59;2.20;99.90
14401;DHT22;7285;50.894;5.462;2024-03-08T06:03:26;2.20;99.90
14401;DHT22;7285;50.894;5.462;2024-03-08T06:05:54;2.20;99.90
14401;DHT22;7285;50.894;5.462;2024-03-08T06:08:22;2.20;99.90
14401;DHT22;7285;50.894;5.462;2024-03-08T06:10:49;2.20;99.90
14401;DHT22;7285;50.894;5.462;2024-03-08T06:13:18;2.20;99.90
14401;DHT22;7285;50.894;5.462;2024-03-08T06:15:45;2.20;99.90
14401;DHT22;7285;50.894;5.462;2024-03-08T06:18:12;2.20;99.90
14401;DHT22;7285;50.894;5.462;2024-03-08T06:20:40;2.20;99.90
14401;DHT22;7285;50.894;5.462;2024-03-08T06:23:10;2.30;99.90
14401;DHT22;7285;50.894;5.462;2024-03-08T06:25:37;2.30;99.90
14401;DHT22;7285;50.894;5.462;2024-03-08T06:28:05;2.30;99.90
14401;DHT22;7285;50.894;5.462;2024-03-08T06:30:32;2.30;99.90
14401;DHT22;7285;50.894;5.462;2024-03-08T06:33:00;2.30;99.90
14401;DHT22;7285;50.894;5.462;2024-03-08T06:35:27;2.30;99.90
14401;DHT22;7285;50.894;5.462;2024-03-08T06:37:57;2.40;99.90
14401;DHT22;7285;50.894;5.462;2024-03-08T06:40:26;2.50;99.90
14401;DHT22;7285;50.894;5.462;2024-03-08T06:42:53;2.40;99.90
14401;DHT22;7285;50.894;5.462;2024-03-08T06:45:20;2.50;99.90
14401;DHT22;7285;50.894;5.462;2024-03-08T06:47:47;2.50;99.90
14401;DHT22;7285;50.894;5.462;2024-03-08T06:50:14;2.60;99.90
14401;DHT22;7285;50.894;5.462;2024-03-08T06:52:41;2.60;99.90
14401;DHT22;7285;50.894;5.462;2024-03-08T06:55:10;2.70;99.90
14401;DHT22;7285;50.894;5.462;2024-03-08T06:57:40;2.80;99.90
14401;DHT22;7285;50.894;5.462;2024-03-08T07:00:08;2.80;99.90
14401;DHT22;7285;50.894;5.462;2024-03-08T07:02:37;2.90;99.90
14401;DHT22;7285;50.894;5.462;2024-03-08T07:05:05;2.90;99.90
14401;DHT22;7285;50.894;5.462;2024-03-08T07:07:35;3.00;99.90
14401;DHT22;7285;50.894;5.462;2024-03-08T07:10:03;3.00;99.90
14401;DHT22;7285;50.894;5.462;2024-03-08T07:12:31;3.10;99.90
14401;DHT22;7285;50.894;5.462;2024-03-08T07:14:59;3.20;99.90
14401;DHT22;7285;50.894;5.462;2024-03-08T07:17:26;3.20;99.90
14401;DHT22;7285;50.894;5.462;2024-03-08T07:19:53;3.30;99.90
14401;DHT22;7285;50.894;5.462;2024-03-08T07:22:20;3.30;99.90
14401;DHT22;7285;50.894;5.462;2024-03-08T07:24:49;3.40;99.90
14401;DHT22;7285;50.894;5.462;2024-03-08T07:27:40;3.50;99.90
14401;DHT22;7285;50.894;5.462;2024-03-08T07:30:10;3.60;99.90
14401;DHT22;7285;50.894;5.462;2024-03-08T07:32:38;3.60;99.90
14401;DHT22;7285;50.894;5.462;2024-03-08T07:35:06;3.70;99.90
14401;DHT22;7285;50.894;5.462;2024-03-08T07:37:33;3.80;99.90
14401;DHT22;7285;50.894;5.462;2024-03-08T07:40:00;3.90;99.90
14401;DHT22;7285;50.894;5.462;2024-03-08T07:42:27;4.00;99.90
14401;DHT22;7285;50.894;5.462;2024-03-08T07:44:55;4.10;99.90
14401;DHT22;7285;50.894;5.462;2024-03-08T07:47:23;4.20;99.90
14401;DHT22;7285;50.894;5.462;2024-03-08T07:49:51;4.20;99.90
14401;DHT22;7285;50.894;5.462;2024-03-08T07:52:19;4.30;99.90
14401;DHT22;7285;50.894;5.462;2024-03-08T07:54:46;4.40;99.90
14401;DHT22;7285;50.894;5.462;2024-03-08T07:57:14;4.50;99.90
14401;DHT22;7285;50.894;5.462;2024-03-08T07:59:41;4.60;99.90
14401;DHT22;7285;50.894;5.462;2024-03-08T08:02:08;4.70;99.90
14401;DHT22;7285;50.894;5.462;2024-03-08T08:04:37;4.70;99.90
14401;DHT22;7285;50.894;5.462;2024-03-08T08:07:04;4.80;99.90
14401;DHT22;7285;50.894;5.462;2024-03-08T08:09:32;4.90;99.90
14401;DHT22;7285;50.894;5.462;2024-03-08T08:12:00;5.00;99.90
14401;DHT22;7285;50.894;5.462;2024-03-08T08:14:29;5.10;99.90
14401;DHT22;7285;50.894;5.462;2024-03-08T08:16:56;5.10;99.90
14401;DHT22;7285;50.894;5.462;2024-03-08T08:19:25;5.20;99.90
14401;DHT22;7285;50.894;5.462;2024-03-08T08:21:54;5.30;99.90
14401;DHT22;7285;50.894;5.462;2024-03-08T08:24:21;5.40;99.90
14401;DHT22;7285;50.894;5.462;2024-03-08T08:26:48;5.50;99.90
14401;DHT22;7285;50.894;5.462;2024-03-08T08:29:15;5.50;99.90
14401;DHT22;7285;50.894;5.462;2024-03-08T08:31:42;5.60;99.90
14401;DHT22;7285;50.894;5.462;2024-03-08T08:34:09;5.70;99.90
14401;DHT22;7285;50.894;5.462;2024-03-08T08:36:37;5.70;99.90
14401;DHT22;7285;50.894;5.462;2024-03-08T08:39:05;5.90;99.90
14401;DHT22;7285;50.894;5.462;2024-03-08T08:41:38;6.00;99.90
14401;DHT22;7285;50.894;5.462;2024-03-08T08:44:05;6.10;99.90
14401;DHT22;7285;50.894;5.462;2024-03-08T08:46:35;6.30;99.90
14401;DHT22;7285;50.894;5.462;2024-03-08T08:49:03;6.40;99.90
14401;DHT22;7285;50.894;5.462;2024-03-08T08:51:30;6.60;99.90
14401;DHT22;7285;50.894;5.462;2024-03-08T08:53:59;6.80;99.90
14401;DHT22;7285;50.894;5.462;2024-03-08T08:56:27;6.90;99.90
14401;DHT22;7285;50.894;5.462;2024-03-08T08:58:55;7.00;99.90
14401;DHT22;7285;50.894;5.462;2024-03-08T09:01:23;7.10;99.90
14401;DHT22;7285;50.894;5.462;2024-03-08T09:03:50;7.20;99.90
14401;DHT22;7285;50.894;5.462;2024-03-08T09:06:17;7.20;99.90
14401;DHT22;7285;50.894;5.462;2024-03-08T09:08:44;7.20;99.90
14401;DHT22;7285;50.894;5.462;2024-03-08T09:11:11;7.40;99.90
14401;DHT22;7285;50.894;5.462;2024-03-08T09:13:40;7.50;99.90
14401;DHT22;7285;50.894;5.462;2024-03-08T09:16:07;7.30;99.90
14401;DHT22;7285;50.894;5.462;2024-03-08T09:18:36;7.50;99.90
14401;DHT22;7285;50.894;5.462;2024-03-08T09:21:03;7.60;99.90
14401;DHT22;7285;50.894;5.462;2024-03-08T09:23:35;7.80;99.90
14401;DHT22;7285;50.894;5.462;2024-03-08T09:26:02;8.00;99.90
14401;DHT22;7285;50.894;5.462;2024-03-08T09:28:29;8.00;99.90
14401;DHT22;7285;50.894;5.462;2024-03-08T09:30:58;8.20;99.90
14401;DHT22;7285;50.894;5.462;2024-03-08T09:33:26;8.50;99.90
14401;DHT22;7285;50.894;5.462;2024-03-08T09:35:54;8.30;99.90
14401;DHT22;7285;50.894;5.462;2024-03-08T09:38:23;8.40;99.90
14401;DHT22;7285;50.894;5.462;2024-03-08T09:40:50;8.60;99.90
14401;DHT22;7285;50.894;5.462;2024-03-08T09:43:18;8.70;99.90
14401;DHT22;7285;50.894;5.462;2024-03-08T09:45:46;8.60;99.90
14401;DHT22;7285;50.894;5.462;2024-03-08T09:48:17;8.80;99.90
14401;DHT22;7285;50.894;5.462;2024-03-08T09:50:46;9.20;99.90
14401;DHT22;7285;50.894;5.462;2024-03-08T09:53:13;9.30;99.90
14401;DHT22;7285;50.894;5.462;2024-03-08T09:55:41;9.50;99.90
14401;DHT22;7285;50.894;5.462;2024-03-08T09:58:12;9.70;99.90
14401;DHT22;7285;50.894;5.462;2024-03-08T10:01:08;9.60;99.90
14401;DHT22;7285;50.894;5.462;2024-03-08T10:03:36;10.00;99.90
14401;DHT22;7285;50.894;5.462;2024-03-08T10:06:03;9.90;99.90
14401;DHT22;7285;50.894;5.462;2024-03-08T10:08:31;9.80;99.90
14401;DHT22;7285;50.894;5.462;2024-03-08T10:10:58;10.20;99.90
14401;DHT22;7285;50.894;5.462;2024-03-08T10:13:26;10.10;99.90
14401;DHT22;7285;50.894;5.462;2024-03-08T10:15:53;10.30;99.90
14401;DHT22;7285;50.894;5.462;2024-03-08T10:18:21;10.70;99.90
14401;DHT22;7285;50.894;5.462;2024-03-08T10:21:02;10.70;99.90
14401;DHT22;7285;50.894;5.462;2024-03-08T10:23:31;10.80;99.90
14401;DHT22;7285;50.894;5.462;2024-03-08T10:26:09;10.80;99.90
14401;DHT22;7285;50.894;5.462;2024-03-08T10:28:36;11.00;99.90
14401;DHT22;7285;50.894;5.462;2024-03-08T10:31:04;11.10;99.90
14401;DHT22;7285;50.894;5.462;2024-03-08T10:33:32;11.00;99.90
14401;DHT22;7285;50.894;5.462;2024-03-08T10:36:00;11.20;99.90
14401;DHT22;7285;50.894;5.462;2024-03-08T10:38:31;11.40;99.90
14401;DHT22;7285;50.894;5.462;2024-03-08T10:41:00;11.40;99.90
14401;DHT22;7285;50.894;5.462;2024-03-08T10:43:28;11.20;99.90
14401;DHT22;7285;50.894;5.462;2024-03-08T10:46:13;11.20;99.90
14401;DHT22;7285;50.894;5.462;2024-03-08T10:48:44;11.60;99.90
14401;DHT22;7285;50.894;5.462;2024-03-08T10:51:13;12.10;99.90
14401;DHT22;7285;50.894;5.462;2024-03-08T10:53:42;12.50;99.90
14401;DHT22;7285;50.894;5.462;2024-03-08T10:56:11;12.40;99.90
14401;DHT22;7285;50.894;5.462;2024-03-08T10:58:40;12.50;99.90
14401;DHT22;7285;50.894;5.462;2024-03-08T11:01:07;12.90;99.90
14401;DHT22;7285;50.894;5.462;2024-03-08T11:03:45;13.30;99.90
14401;DHT22;7285;50.894;5.462;2024-03-08T11:06:18;13.80;99.90
14401;DHT22;7285;50.894;5.462;2024-03-08T11:08:49;13.90;99.90
14401;DHT22;7285;50.894;5.462;2024-03-08T11:11:26;13.60;98.80
14401;DHT22;7285;50.894;5.462;2024-03-08T11:13:56;13.30;99.90
14401;DHT22;7285;50.894;5.462;2024-03-08T11:16:39;14.20;99.90
14401;DHT22;7285;50.894;5.462;2024-03-08T11:19:26;14.30;98.50
14401;DHT22;7285;50.894;5.462;2024-03-08T11:21:59;14.30;98.00
14401;DHT22;7285;50.894;5.462;2024-03-08T11:24:26;14.10;99.30
14401;DHT22;7285;50.894;5.462;2024-03-08T11:26:57;14.10;98.10
14401;DHT22;7285;50.894;5.462;2024-03-08T11:29:33;14.40;97.70
14401;DHT22;7285;50.894;5.462;2024-03-08T11:32:08;14.50;97.10
14401;DHT22;7285;50.894;5.462;2024-03-08T11:34:36;14.40;97.80
14401;DHT22;7285;50.894;5.462;2024-03-08T11:37:11;14.60;96.10
14401;DHT22;7285;50.894;5.462;2024-03-08T11:39:39;14.50;95.80
14401;DHT22;7285;50.894;5.462;2024-03-08T11:42:06;14.80;96.40
14401;DHT22;7285;50.894;5.462;2024-03-08T11:44:33;15.10;95.20
14401;DHT22;7285;50.894;5.462;2024-03-08T11:47:01;15.30;94.70
14401;DHT22;7285;50.894;5.462;2024-03-08T11:49:31;14.40;95.40
14401;DHT22;7285;50.894;5.462;2024-03-08T11:51:59;15.10;96.10
14401;DHT22;7285;50.894;5.462;2024-03-08T11:54:28;15.60;95.10
14401;DHT22;7285;50.894;5.462;2024-03-08T11:56:56;15.80;94.10
14401;DHT22;7285;50.894;5.462;2024-03-08T11:59:27;15.80;94.70
14401;DHT22;7285;50.894;5.462;2024-03-08T12:02:11;16.20;94.00
14401;DHT22;7285;50.894;5.462;2024-03-08T12:04:39;16.70;95.50
14401;DHT22;7285;50.894;5.462;2024-03-08T12:07:10;16.90;92.30
14401;DHT22;7285;50.894;5.462;2024-03-08T12:09:39;16.70;91.90
14401;DHT22;7285;50.894;5.462;2024-03-08T12:12:12;16.50;90.90
14401;DHT22;7285;50.894;5.462;2024-03-08T12:14:42;16.80;92.00
14401;DHT22;7285;50.894;5.462;2024-03-08T12:17:10;16.20;89.60
14401;DHT22;7285;50.894;5.462;2024-03-08T12:19:37;15.70;90.10
14401;DHT22;7285;50.894;5.462;2024-03-08T12:22:08;16.10;91.00
14401;DHT22;7285;50.894;5.462;2024-03-08T12:24:38;16.50;90.60
14401;DHT22;7285;50.894;5.462;2024-03-08T12:27:18;16.30;89.80
14401;DHT22;7285;50.894;5.462;2024-03-08T12:29:45;16.70;90.40
14401;DHT22;7285;50.894;5.462;2024-03-08T12:32:12;16.00;89.80
14401;DHT22;7285;50.894;5.462;2024-03-08T12:34:40;15.90;88.30
14401;DHT22;7285;50.894;5.462;2024-03-08T12:37:07;16.20;91.20
14401;DHT22;7285;50.894;5.462;2024-03-08T12:39:35;16.30;88.60
14401;DHT22;7285;50.894;5.462;2024-03-08T12:42:05;16.30;89.10
14401;DHT22;7285;50.894;5.462;2024-03-08T12:44:32;15.90;90.00
14401;DHT22;7285;50.894;5.462;2024-03-08T12:46:59;15.90;87.90
14401;DHT22;7285;50.894;5.462;2024-03-08T12:49:27;15.60;88.40
14401;DHT22;7285;50.894;5.462;2024-03-08T12:51:54;16.20;91.50
14401;DHT22;7285;50.894;5.462;2024-03-08T12:54:21;15.80;86.70
14401;DHT22;7285;50.894;5.462;2024-03-08T12:56:50;15.70;89.20
14401;DHT22;7285;50.894;5.462;2024-03-08T12:59:20;15.70;85.60
14401;DHT22;7285;50.894;5.462;2024-03-08T13:01:49;16.10;90.20
14401;DHT22;7285;50.894;5.462;2024-03-08T13:04:17;16.40;87.90
14401;DHT22;7285;50.894;5.462;2024-03-08T13:06:44;16.40;87.80
14401;DHT22;7285;50.894;5.462;2024-03-08T13:09:12;16.80;84.00
14401;DHT22;7285;50.894;5.462;2024-03-08T13:11:39;17.30;87.70
14401;DHT22;7285;50.894;5.462;2024-03-08T13:14:06;17.90;84.10
14401;DHT22;7285;50.894;5.462;2024-03-08T13:16:34;19.10;86.10
14401;DHT22;7285;50.894;5.462;2024-03-08T13:19:01;19.60;81.20
14401;DHT22;7285;50.894;5.462;2024-03-08T13:21:30;19.60;74.80
14401;DHT22;7285;50.894;5.462;2024-03-08T13:23:57;18.90;70.00
14401;DHT22;7285;50.894;5.462;2024-03-08T13:26:26;18.40;70.40
14401;DHT22;7285;50.894;5.462;2024-03-08T13:28:58;19.80;73.10
14401;DHT22;7285;50.894;5.462;2024-03-08T13:31:25;19.60;68.40
14401;DHT22;7285;50.894;5.462;2024-03-08T13:33:54;20.10;67.80
14401;DHT22;7285;50.894;5.462;2024-03-08T13:36:24;20.30;65.10
14401;DHT22;7285;50.894;5.462;2024-03-08T13:38:54;20.10;60.20
14401;DHT22;7285;50.894;5.462;2024-03-08T13:41:24;19.20;57.80
14401;DHT22;7285;50.894;5.462;2024-03-08T13:43:51;19.60;61.60
14401;DHT22;7285;50.894;5.462;2024-03-08T13:46:21;19.40;60.80
14401;DHT22;7285;50.894;5.462;2024-03-08T13:48:48;20.40;64.50
14401;DHT22;7285;50.894;5.462;2024-03-08T13:51:17;20.30;56.50
14401;DHT22;7285;50.894;5.462;2024-03-08T13:53:45;19.70;56.10
14401;DHT22;7285;50.894;5.462;2024-03-08T13:56:12;18.50;62.30
14401;DHT22;7285;50.894;5.462;2024-03-08T13:58:40;18.90;59.10
14401;DHT22;7285;50.894;5.462;2024-03-08T14:01:09;18.20;58.90
14401;DHT22;7285;50.894;5.462;2024-03-08T14:03:37;18.40;61.50
14401;DHT22;7285;50.894;5.462;2024-03-08T14:06:04;17.40;59.20
14401;DHT22;7285;50.894;5.462;2024-03-08T14:08:34;17.20;61.00
14401;DHT22;7285;50.894;5.462;2024-03-08T14:11:03;16.90;61.80
14401;DHT22;7285;50.894;5.462;2024-03-08T14:13:40;17.20;63.40
14401;DHT22;7285;50.894;5.462;2024-03-08T14:16:08;17.10;62.50
14401;DHT22;7285;50.894;5.462;2024-03-08T14:18:36;16.70;65.20
14401;DHT22;7285;50.894;5.462;2024-03-08T14:21:03;16.80;66.20
14401;DHT22;7285;50.894;5.462;2024-03-08T14:23:31;16.10;64.30
14401;DHT22;7285;50.894;5.462;2024-03-08T14:25:59;16.20;65.20
14401;DHT22;7285;50.894;5.462;2024-03-08T14:28:26;16.50;65.50
14401;DHT22;7285;50.894;5.462;2024-03-08T14:30:53;16.60;66.90
14401;DHT22;7285;50.894;5.462;2024-03-08T14:33:21;16.50;66.60
14401;DHT22;7285;50.894;5.462;2024-03-08T14:35:50;16.00;64.70
14401;DHT22;7285;50.894;5.462;2024-03-08T14:38:17;15.80;66.50
14401;DHT22;7285;50.894;5.462;2024-03-08T14:40:44;15.70;65.70
14401;DHT22;7285;50.894;5.462;2024-03-08T14:43:14;15.90;66.90
14401;DHT22;7285;50.894;5.462;2024-03-08T14:45:42;16.00;66.60
14401;DHT22;7285;50.894;5.462;2024-03-08T14:48:13;16.20;68.00
14401;DHT22;7285;50.894;5.462;2024-03-08T14:50:40;15.50;62.60
14401;DHT22;7285;50.894;5.462;2024-03-08T14:53:09;15.40;68.40
14401;DHT22;7285;50.894;5.462;2024-03-08T14:55:38;15.70;68.30
14401;DHT22;7285;50.894;5.462;2024-03-08T14:58:05;15.10;66.20
14401;DHT22;7285;50.894;5.462;2024-03-08T15:00:33;15.40;69.60
14401;DHT22;7285;50.894;5.462;2024-03-08T15:03:01;15.50;65.70
14401;DHT22;7285;50.894;5.462;2024-03-08T15:05:30;15.60;65.70
14401;DHT22;7285;50.894;5.462;2024-03-08T15:07:59;15.60;65.90
14401;DHT22;7285;50.894;5.462;2024-03-08T15:10:28;15.30;68.40
14401;DHT22;7285;50.894;5.462;2024-03-08T15:12:59;15.60;66.80
14401;DHT22;7285;50.894;5.462;2024-03-08T15:15:27;15.80;68.30
14401;DHT22;7285;50.894;5.462;2024-03-08T15:17:57;15.50;65.10
14401;DHT22;7285;50.894;5.462;2024-03-08T15:20:24;15.90;65.90
14401;DHT22;7285;50.894;5.462;2024-03-08T15:22:54;15.80;66.60
14401;DHT22;7285;50.894;5.462;2024-03-08T15:25:24;15.90;66.10
14401;DHT22;7285;50.894;5.462;2024-03-08T15:27:52;15.80;63.40
14401;DHT22;7285;50.894;5.462;2024-03-08T15:30:19;16.60;64.60
14401;DHT22;7285;50.894;5.462;2024-03-08T15:32:48;16.80;64.70
14401;DHT22;7285;50.894;5.462;2024-03-08T15:35:17;17.40;58.80
14401;DHT22;7285;50.894;5.462;2024-03-08T15:37:44;17.20;60.10
14401;DHT22;7285;50.894;5.462;2024-03-08T15:40:12;17.10;59.50
14401;DHT22;7285;50.894;5.462;2024-03-08T15:42:48;16.00;58.20
14401;DHT22;7285;50.894;5.462;2024-03-08T15:45:16;15.70;59.00
14401;DHT22;7285;50.894;5.462;2024-03-08T15:47:43;16.20;59.10
14401;DHT22;7285;50.894;5.462;2024-03-08T15:50:10;16.30;59.20
14401;DHT22;7285;50.894;5.462;2024-03-08T15:52:43;15.60;60.00
14401;DHT22;7285;50.894;5.462;2024-03-08T15:55:14;15.30;62.70
14401;DHT22;7285;50.894;5.462;2024-03-08T15:57:45;15.00;61.30
14401;DHT22;7285;50.894;5.462;2024-03-08T16:00:15;14.70;63.10
14401;DHT22;7285;50.894;5.462;2024-03-08T16:02:56;14.60;63.60